This is the latest recevied weather packets stored in our database for station/object KB2FWP. If no packets are shown the sender has not sent any weather packets the latest 10 day(s).
| Time | Temp. | Humidity | Pressure | Rain* | Wind** | Luminosity | Snow |
|---|---|---|---|---|---|---|---|
| 1787688006 | 25° C | 66% | 1016.1 hPa | 0 mm | - | - | - |
| 1787687105 | 24.44° C | 69% | 1016.1 hPa | 0 mm | - | - | - |
| 1787686204 | 24.44° C | 67% | 1016.3 hPa | 0 mm | - | - | - |
| 1787685304 | 26.11° C | 59% | 1016.4 hPa | 0 mm | - | - | - |
| 1787684403 | 26.11° C | 58% | 1016.5 hPa | 0 mm | - | - | - |
| 1787683502 | 25.56° C | 61% | 1016.6 hPa | 0 mm | - | - | - |
| 1787682601 | 26.11° C | 58% | 1016.7 hPa | 0 mm | - | - | - |
| 1787681701 | 26.67° C | 56% | 1016.6 hPa | 0 mm | - | - | - |
| 1787680862 | 27.22° C | 57% | 1016.7 hPa | 0 mm | - | - | - |
| 1787679962 | 27.22° C | 57% | 1016.7 hPa | 0 mm | - | - | - |
| 1787679076 | 27.22° C | 56% | 1016.7 hPa | 0 mm | - | - | - |
| 1787678169 | 26.67° C | 57% | 1016.9 hPa | 0 mm | - | - | - |
| 1787677262 | 27.22° C | 56% | 1016.8 hPa | 0 mm | - | - | - |
| 1787676367 | 26.67° C | 56% | 1016.9 hPa | 0 mm | - | - | - |
| 1787675452 | 26.67° C | 58% | 1017 hPa | 0 mm | - | - | - |
| 1787674552 | 25.56° C | 59% | 1017.1 hPa | 0 mm | - | - | - |
| 1787673650 | 26.11° C | 58% | 1017.2 hPa | 0 mm | - | - | - |
| 1787672772 | 26.11° C | 60% | 1017.2 hPa | 0 mm | - | - | - |
| 1787671845 | 25° C | 62% | 1017.3 hPa | 0 mm | - | - | - |
| 1787670946 | 25° C | 64% | 1017.4 hPa | 0 mm | - | - | - |
| 1787670043 | 25° C | 62% | 1017.5 hPa | 0 mm | - | - | - |
| 1787669141 | 24.44° C | 64% | 1017.4 hPa | 0 mm | - | - | - |
| 1787668240 | 24.44° C | 65% | 1017.6 hPa | 0 mm | - | - | - |
| 1787667334 | 23.89° C | 67% | 1017.6 hPa | 0 mm | - | - | - |
| 1787666440 | 23.33° C | 68% | 1017.5 hPa | 0 mm | - | - | - |
* Rain latest hour (hover to see other rain measurements)
** Current wind speed in m/s (hover to see current wind gust speed)